| time (UTC) | temp C | wind direction | speed KPH | gust KPH | rain 1hr cm | rain 24hr cm | rain mn cm | humidity % | barometer mb |
| 20260906212444 | 34 | 121 | 16.1 | 24.1 | 0.00 | 0.00 | 0.00 | 32 | 1016.7 |
| 20260906211939 | 34 | 124 | 27.4 | 35.4 | 0.00 | 0.00 | 0.00 | 33 | 1016.7 |
| 20260906211434 | 33 | 134 | 14.5 | 19.3 | 0.00 | 0.00 | 0.00 | 33 | 1016.8 |
| 20260906210929 | 33 | 172 | 8.0 | 11.3 | 0.00 | 0.00 | 0.00 | 33 | 1016.7 |
| 20260906210424 | 33 | 158 | 12.9 | 16.1 | 0.00 | 0.00 | 0.00 | 33 | 1016.9 |
| 20260906205918 | 33 | 173 | 20.9 | 27.4 | 0.00 | 0.00 | 0.00 | 34 | 1017.0 |
| 20260906205409 | 33 | 116 | 19.3 | 24.1 | 0.00 | 0.00 | 0.00 | 34 | 1017.0 |
| 20260906204905 | 34 | 135 | 8.0 | 14.5 | 0.00 | 0.00 | 0.00 | 33 | 1016.9 |
| 20260906204404 | 33 | 169 | 11.3 | 14.5 | 0.00 | 0.00 | 0.00 | 34 | 1017.2 |
| 20260906203903 | 33 | 131 | 20.9 | 30.6 | 0.00 | 0.00 | 0.00 | 34 | 1017.0 |
| 20260906203358 | 33 | 230 | 16.1 | 22.5 | 0.00 | 0.00 | 0.00 | 33 | 1017.1 |
| 20260906202856 | 34 | 152 | 16.1 | 22.5 | 0.00 | 0.00 | 0.00 | 33 | 1017.1 |
| 20260906202350 | 33 | 163 | 27.4 | 38.6 | 0.00 | 0.00 | 0.00 | 34 | 1016.9 |
| 20260906201849 | 33 | 131 | 30.6 | 38.6 | 0.00 | 0.00 | 0.00 | 34 | 1016.9 |
| 20260906201344 | 33 | 239 | 9.7 | 11.3 | 0.00 | 0.00 | 0.00 | 34 | 1016.8 |
| 20260906200839 | 33 | 131 | 8.0 | 11.3 | 0.00 | 0.00 | 0.00 | 35 | 1017.1 |
| 20260906200335 | 33 | 183 | 4.8 | 8.0 | 0.00 | 0.00 | 0.00 | 35 | 1017.0 |
| 20260906195830 | 34 | 137 | 17.7 | 27.4 | 0.00 | 0.00 | 0.00 | 34 | 1017.4 |
| 20260906195327 | 34 | 136 | 14.5 | 19.3 | 0.00 | 0.00 | 0.00 | 34 | 1017.4 |
| 20260906194823 | 34 | 150 | 4.8 | 8.0 | 0.00 | 0.00 | 0.00 | 34 | 1017.4 |
| 20260906194318 | 33 | 182 | 17.7 | 27.4 | 0.00 | 0.00 | 0.00 | 33 | 1017.7 |
| 20260906193813 | 33 | 129 | 27.4 | 30.6 | 0.00 | 0.00 | 0.00 | 34 | 1017.5 |
| 20260906193308 | 33 | 142 | 17.7 | 30.6 | 0.00 | 0.00 | 0.00 | 34 | 1017.5 |
| 20260906192804 | 33 | 172 | 20.9 | 30.6 | 0.00 | 0.00 | 0.00 | 34 | 1017.8 |
| 20260906192306 | 33 | 203 | 22.5 | 27.4 | 0.00 | 0.00 | 0.00 | 35 | 1017.9 |
| 20260906191802 | 33 | 94 | 16.1 | 24.1 | 0.00 | 0.00 | 0.00 | 35 | 1018.0 |
| 20260906191257 | 33 | 171 | 22.5 | 27.4 | 0.00 | 0.00 | 0.00 | 35 | 1017.9 |
| 20260906190758 | 33 | 119 | 9.7 | 14.5 | 0.00 | 0.00 | 0.00 | 35 | 1017.9 |
| 20260906190252 | 33 | 187 | 14.5 | 16.1 | 0.00 | 0.00 | 0.00 | 36 | 1017.9 |
| 20260906185751 | 33 | 153 | 24.1 | 27.4 | 0.00 | 0.00 | 0.00 | 36 | 1018.0 |
| 20260906185250 | 32 | 163 | 27.4 | 35.4 | 0.00 | 0.00 | 0.00 | 36 | 1018.2 |
| 20260906184745 | 32 | 168 | 8.0 | 11.3 | 0.00 | 0.00 | 0.00 | 38 | 1018.4 |
| 20260906184240 | 33 | 141 | 22.5 | 27.4 | 0.00 | 0.00 | 0.00 | 37 | 1018.2 |
| 20260906183736 | 32 | 151 | 24.1 | 33.8 | 0.00 | 0.00 | 0.00 | 38 | 1018.2 |
| 20260906183233 | 32 | 127 | 24.1 | 27.4 | 0.00 | 0.00 | 0.00 | 39 | 1018.5 |
| 20260906182732 | 32 | 175 | 11.3 | 14.5 | 0.00 | 0.00 | 0.00 | 39 | 1018.4 |
| 20260906182228 | 32 | 156 | 16.1 | 19.3 | 0.00 | 0.00 | 0.00 | 39 | 1018.4 |
| 20260906181723 | 33 | 161 | 30.6 | 33.8 | 0.00 | 0.00 | 0.00 | 38 | 1018.7 |
| 20260906181219 | 32 | 192 | 6.4 | 8.0 | 0.00 | 0.00 | 0.00 | 38 | 1018.5 |
| 20260906180714 | 32 | 175 | 22.5 | 27.4 | 0.00 | 0.00 | 0.00 | 38 | 1018.7 |
| 20260906180209 | 33 | 89 | 8.0 | 11.3 | 0.00 | 0.00 | 0.00 | 38 | 1018.7 |
| 20260906175707 | 32 | 200 | 19.3 | 24.1 | 0.00 | 0.00 | 0.00 | 38 | 1018.8 |
| 20260906175203 | 32 | 157 | 20.9 | 30.6 | 0.00 | 0.00 | 0.00 | 38 | 1019.0 |
| 20260906174700 | 32 | 147 | 25.7 | 35.4 | 0.00 | 0.00 | 0.00 | 38 | 1018.8 |
| 20260906174155 | 32 | 190 | 11.3 | 14.5 | 0.00 | 0.00 | 0.00 | 36 | 1019.1 |
| 20260906173650 | 32 | 162 | 17.7 | 22.5 | 0.00 | 0.00 | 0.00 | 37 | 1019.1 |
| 20260906173146 | 32 | 102 | 9.7 | 14.5 | 0.00 | 0.00 | 0.00 | 38 | 1018.9 |
| 20260906172645 | 32 | 138 | 19.3 | 27.4 | 0.00 | 0.00 | 0.00 | 37 | 1019.1 |
| 20260906172141 | 32 | 122 | 20.9 | 33.8 | 0.00 | 0.00 | 0.00 | 38 | 1019.1 |
| 20260906171640 | 31 | 180 | 16.1 | 22.5 | 0.00 | 0.00 | 0.00 | 39 | 1019.1 |
| 20260906171136 | 32 | 182 | 16.1 | 19.3 | 0.00 | 0.00 | 0.00 | 41 | 1019.1 |
| 20260906170632 | 31 | 216 | 9.7 | 11.3 | 0.00 | 0.00 | 0.00 | 41 | 1019.2 |
| 20260906170131 | 31 | 183 | 24.1 | 30.6 | 0.00 | 0.00 | 0.00 | 40 | 1019.2 |
| 20260906165628 | 31 | 212 | 11.3 | 14.5 | 0.00 | 0.00 | 0.00 | 42 | 1019.2 |
| 20260906165123 | 31 | 169 | 19.3 | 24.1 | 0.00 | 0.00 | 0.00 | 41 | 1019.2 |
| 20260906164622 | 31 | 193 | 19.3 | 24.1 | 0.00 | 0.00 | 0.00 | 43 | 1019.1 |
| 20260906164117 | 31 | 195 | 25.7 | 33.8 | 0.00 | 0.00 | 0.00 | 43 | 1019.3 |
| 20260906163613 | 31 | 183 | 17.7 | 22.5 | 0.00 | 0.00 | 0.00 | 45 | 1019.5 |
| 20260906163108 | 31 | 178 | 9.7 | 16.1 | 0.00 | 0.00 | 0.00 | 46 | 1019.5 |
| 20260906162605 | 31 | 200 | 25.7 | 30.6 | 0.00 | 0.00 | 0.00 | 45 | 1019.5 |
| 20260906162100 | 30 | 209 | 12.9 | 16.1 | 0.00 | 0.00 | 0.00 | 48 | 1019.5 |
| 20260906161555 | 30 | 220 | 20.9 | 33.8 | 0.00 | 0.00 | 0.00 | 48 | 1019.3 |
| 20260906161054 | 30 | 201 | 16.1 | 19.3 | 0.00 | 0.00 | 0.00 | 48 | 1019.2 |
| 20260906160553 | 31 | 198 | 20.9 | 27.4 | 0.00 | 0.00 | 0.00 | 48 | 1019.5 |
| 20260906160052 | 30 | 197 | 19.3 | 24.1 | 0.00 | 0.00 | 0.00 | 49 | 1019.2 |
| 20260906155550 | 30 | 170 | 14.5 | 16.1 | 0.00 | 0.00 | 0.00 | 49 | 1019.5 |
| 20260906155046 | 30 | 218 | 17.7 | 22.5 | 0.00 | 0.00 | 0.00 | 49 | 1019.2 |
| 20260906154541 | 30 | 220 | 9.7 | 14.5 | 0.00 | 0.00 | 0.00 | 50 | 1019.2 |
| 20260906154040 | 30 | 172 | 19.3 | 24.1 | 0.00 | 0.00 | 0.00 | 50 | 1019.1 |
| 20260906153538 | 30 | 193 | 24.1 | 33.8 | 0.00 | 0.00 | 0.00 | 51 | 1019.0 |
| 20260906153034 | 29 | 237 | 9.7 | 11.3 | 0.00 | 0.00 | 0.00 | 51 | 1019.1 |
| 20260906152533 | 29 | 199 | 12.9 | 19.3 | 0.00 | 0.00 | 0.00 | 51 | 1019.2 |
| 20260906152033 | 29 | 200 | 14.5 | 19.3 | 0.00 | 0.00 | 0.00 | 52 | 1019.0 |
| 20260906151528 | 28 | 173 | 12.9 | 19.3 | 0.00 | 0.00 | 0.00 | 52 | 1019.0 |
| 20260906151025 | 28 | 179 | 20.9 | 24.1 | 0.00 | 0.00 | 0.00 | 52 | 1019.0 |
| 20260906150519 | 28 | 140 | 22.5 | 27.4 | 0.00 | 0.00 | 0.00 | 53 | 1018.8 |
| 20260906150015 | 28 | 186 | 20.9 | 27.4 | 0.00 | 0.00 | 0.00 | 52 | 1019.1 |
| 20260906145513 | 28 | 176 | 24.1 | 30.6 | 0.00 | 0.00 | 0.00 | 53 | 1018.9 |
| 20260906145008 | 28 | 175 | 9.7 | 16.1 | 0.00 | 0.00 | 0.00 | 53 | 1019.1 |
| 20260906144502 | 28 | 210 | 17.7 | 27.4 | 0.00 | 0.00 | 0.00 | 54 | 1018.8 |
| 20260906143952 | 27 | 198 | 20.9 | 27.4 | 0.00 | 0.00 | 0.00 | 54 | 1018.8 |
| 20260906143447 | 27 | 166 | 17.7 | 24.1 | 0.00 | 0.00 | 0.00 | 55 | 1018.9 |
| 20260906142944 | 27 | 231 | 6.4 | 11.3 | 0.00 | 0.00 | 0.00 | 56 | 1018.9 |
| 20260906142442 | 27 | 185 | 14.5 | 19.3 | 0.00 | 0.00 | 0.00 | 55 | 1018.7 |
| 20260906141938 | 26 | 209 | 11.3 | 14.5 | 0.00 | 0.00 | 0.00 | 55 | 1018.8 |
| 20260906141431 | 26 | 220 | 11.3 | 16.1 | 0.00 | 0.00 | 0.00 | 56 | 1018.8 |
| 20260906140926 | 26 | 179 | 14.5 | 19.3 | 0.00 | 0.00 | 0.00 | 56 | 1018.8 |
| 20260906140421 | 26 | 181 | 17.7 | 19.3 | 0.00 | 0.00 | 0.00 | 56 | 1018.6 |
| 20260906135918 | 26 | 175 | 11.3 | 16.1 | 0.00 | 0.00 | 0.00 | 56 | 1018.8 |
| 20260906135412 | 26 | 195 | 14.5 | 19.3 | 0.00 | 0.00 | 0.00 | 56 | 1018.8 |
| 20260906134908 | 25 | 157 | 17.7 | 22.5 | 0.00 | 0.00 | 0.00 | 57 | 1018.8 |
| 20260906134403 | 25 | 162 | 8.0 | 8.0 | 0.00 | 0.00 | 0.00 | 58 | 1018.8 |
| 20260906133858 | 25 | 174 | 14.5 | 16.1 | 0.00 | 0.00 | 0.00 | 58 | 1018.5 |
| 20260906133354 | 25 | 172 | 16.1 | 19.3 | 0.00 | 0.00 | 0.00 | 58 | 1018.5 |
| 20260906132849 | 25 | 172 | 14.5 | 16.1 | 0.00 | 0.00 | 0.00 | 59 | 1018.5 |
| 20260906132344 | 24 | 180 | 14.5 | 16.1 | 0.00 | 0.00 | 0.00 | 59 | 1018.2 |
| 20260906131840 | 24 | 202 | 11.3 | 14.5 | 0.00 | 0.00 | 0.00 | 60 | 1018.1 |
| 20260906131335 | 23 | 195 | 11.3 | 14.5 | 0.00 | 0.00 | 0.00 | 61 | 1018.0 |
| 20260906130831 | 23 | 194 | 4.8 | 4.8 | 0.00 | 0.00 | 0.00 | 62 | 1018.1 |
| 20260906130330 | 23 | 187 | 6.4 | 8.0 | 0.00 | 0.00 | 0.00 | 62 | 1018.0 |
| 20260906125830 | 22 | 165 | 11.3 | 14.5 | 0.00 | 0.00 | 0.00 | 63 | 1017.9 |
| 20260906125327 | 22 | 192 | 8.0 | 11.3 | 0.00 | 0.00 | 0.00 | 63 | 1018.0 |
| 20260906124822 | 22 | 190 | 4.8 | 4.8 | 0.00 | 0.00 | 0.00 | 63 | 1018.0 |
| 20260906124318 | 22 | 190 | 6.4 | 8.0 | 0.00 | 0.00 | 0.00 | 63 | 1017.9 |
| 20260906123816 | 22 | 203 | 4.8 | 4.8 | 0.00 | 0.00 | 0.00 | 63 | 1017.8 |
| 20260906123311 | 22 | 192 | 8.0 | 14.5 | 0.00 | 0.00 | 0.00 | 62 | 1017.8 |
| 20260906122811 | 22 | 187 | 8.0 | 11.3 | 0.00 | 0.00 | 0.00 | 62 | 1017.8 |
| 20260906122301 | 23 | 194 | 14.5 | 19.3 | 0.00 | 0.00 | 0.00 | 62 | 1017.7 |
| 20260906121757 | 22 | 186 | 11.3 | 16.1 | 0.00 | 0.00 | 0.00 | 63 | 1017.5 |
| 20260906121248 | 22 | 144 | 11.3 | 19.3 | 0.00 | 0.00 | 0.00 | 63 | 1017.6 |
| 20260906120743 | 22 | 131 | 14.5 | 16.1 | 0.00 | 0.00 | 0.00 | 63 | 1017.7 |
| 20260906120240 | 23 | 184 | 6.4 | 11.3 | 0.00 | 0.00 | 0.00 | 62 | 1017.6 |
| 20260906115735 | 23 | 193 | 8.0 | 11.3 | 0.00 | 0.00 | 0.00 | 61 | 1017.7 |
| 20260906115230 | 23 | 182 | 8.0 | 11.3 | 0.00 | 0.00 | 0.00 | 61 | 1017.7 |
| 20260906114729 | 23 | 203 | 16.1 | 19.3 | 0.00 | 0.00 | 0.00 | 60 | 1017.8 |
| 20260906114224 | 23 | 203 | 11.3 | 14.5 | 0.00 | 0.00 | 0.00 | 60 | 1017.6 |
| 20260906113720 | 23 | 176 | 6.4 | 11.3 | 0.00 | 0.00 | 0.00 | 60 | 1017.8 |
| 20260906113218 | 23 | 175 | 8.0 | 11.3 | 0.00 | 0.00 | 0.00 | 60 | 1017.6 |
| 20260906112713 | 23 | 132 | 6.4 | 8.0 | 0.00 | 0.00 | 0.00 | 61 | 1017.8 |
| 20260906112210 | 23 | 117 | 3.2 | 8.0 | 0.00 | 0.00 | 0.00 | 61 | 1017.9 |
| 20260906111708 | 23 | 120 | 9.7 | 14.5 | 0.00 | 0.00 | 0.00 | 61 | 1018.2 |
| 20260906111157 | 23 | 106 | 3.2 | 3.2 | 0.00 | 0.00 | 0.00 | 61 | 1018.1 |
| 20260906110652 | 23 | 121 | 1.6 | 3.2 | 0.00 | 0.00 | 0.00 | 61 | 1018.4 |
| 20260906110147 | 23 | 131 | 4.8 | 8.0 | 0.00 | 0.00 | 0.00 | 61 | 1018.0 |
| 20260906105642 | 23 | 149 | 8.0 | 8.0 | 0.00 | 0.00 | 0.00 | 61 | 1018.0 |
| 20260906105138 | 23 | 169 | 6.4 | 8.0 | 0.00 | 0.00 | 0.00 | 63 | 1018.1 |
| 20260906104637 | 22 | 25 | 3.2 | 4.8 | 0.00 | 0.00 | 0.00 | 64 | 1018.1 |
| 20260906104136 | 22 | 11 | 3.2 | 8.0 | 0.00 | 0.00 | 0.00 | 66 | 1018.2 |
| 20260906103635 | 23 | 18 | 9.7 | 11.3 | 0.00 | 0.00 | 0.00 | 64 | 1018.0 |
| 20260906103130 | 23 | 48 | 0.0 | 0.0 | 0.00 | 0.00 | 0.00 | 60 | 1018.1 |
| 20260906102625 | 23 | 84 | 3.2 | 4.8 | 0.00 | 0.00 | 0.00 | 59 | 1017.9 |
| 20260906102120 | 23 | 90 | 1.6 | 3.2 | 0.00 | 0.00 | 0.00 | 59 | 1018.1 |
| 20260906101614 | 24 | 83 | 3.2 | 4.8 | 0.00 | 0.00 | 0.00 | 58 | 1017.8 |
| 20260906101114 | 24 | 148 | 6.4 | 8.0 | 0.00 | 0.00 | 0.00 | 58 | 1018.0 |
| 20260906100610 | 24 | 146 | 8.0 | 11.3 | 0.00 | 0.00 | 0.00 | 58 | 1017.8 |
| 20260906100110 | 24 | 144 | 8.0 | 8.0 | 0.00 | 0.00 | 0.00 | 58 | 1017.9 |
| 20260906095610 | 24 | 128 | 8.0 | 8.0 | 0.00 | 0.00 | 0.00 | 58 | 1017.9 |
| 20260906095105 | 24 | 153 | 8.0 | 11.3 | 0.00 | 0.00 | 0.00 | 57 | 1017.8 |
| 20260906094604 | 24 | 184 | 8.0 | 11.3 | 0.00 | 0.00 | 0.00 | 57 | 1017.9 |
| 20260906094100 | 24 | 143 | 11.3 | 14.5 | 0.00 | 0.00 | 0.00 | 57 | 1017.9 |
| 20260906093556 | 24 | 160 | 4.8 | 4.8 | 0.00 | 0.00 | 0.00 | 58 | 1017.9 |
| 20260906093051 | 24 | 127 | 9.7 | 14.5 | 0.00 | 0.00 | 0.00 | 58 | 1018.0 |
| 20260906092546 | 24 | 173 | 14.5 | 16.1 | 0.00 | 0.00 | 0.00 | 58 | 1017.8 |
| 20260906092041 | 24 | 146 | 11.3 | 14.5 | 0.00 | 0.00 | 0.00 | 57 | 1017.8 |
| 20260906091537 | 25 | 164 | 8.0 | 11.3 | 0.00 | 0.00 | 0.00 | 57 | 1017.6 |
| 20260906091034 | 25 | 175 | 9.7 | 14.5 | 0.00 | 0.00 | 0.00 | 57 | 1017.7 |
| 20260906090533 | 25 | 180 | 12.9 | 16.1 | 0.00 | 0.00 | 0.00 | 56 | 1017.8 |
| 20260906090028 | 25 | 186 | 11.3 | 19.3 | 0.00 | 0.00 | 0.00 | 56 | 1017.7 |
| 20260906085527 | 25 | 169 | 9.7 | 11.3 | 0.00 | 0.00 | 0.00 | 56 | 1017.5 |
| 20260906085027 | 25 | 202 | 9.7 | 14.5 | 0.00 | 0.00 | 0.00 | 56 | 1017.5 |
| 20260906084522 | 25 | 145 | 11.3 | 14.5 | 0.00 | 0.00 | 0.00 | 56 | 1017.4 |
| 20260906084020 | 25 | 143 | 11.3 | 14.5 | 0.00 | 0.00 | 0.00 | 56 | 1017.5 |
| 20260906083517 | 25 | 171 | 11.3 | 16.1 | 0.00 | 0.00 | 0.00 | 56 | 1017.1 |
| 20260906083016 | 25 | 151 | 11.3 | 16.1 | 0.00 | 0.00 | 0.00 | 56 | 1017.4 |
| 20260906082511 | 25 | 166 | 14.5 | 19.3 | 0.00 | 0.00 | 0.00 | 56 | 1017.4 |
| 20260906082007 | 25 | 101 | 8.0 | 11.3 | 0.00 | 0.00 | 0.00 | 56 | 1017.4 |
| 20260906081503 | 25 | 168 | 11.3 | 14.5 | 0.00 | 0.00 | 0.00 | 56 | 1017.2 |
| 20260906080958 | 25 | 166 | 16.1 | 22.5 | 0.00 | 0.00 | 0.00 | 56 | 1017.7 |
| 20260906080454 | 25 | 137 | 12.9 | 14.5 | 0.00 | 0.00 | 0.00 | 56 | 1017.5 |
| 20260906075949 | 25 | 154 | 9.7 | 14.5 | 0.00 | 0.00 | 0.00 | 55 | 1017.4 |
| 20260906075443 | 25 | 166 | 11.3 | 14.5 | 0.00 | 0.00 | 0.00 | 55 | 1017.5 |
| 20260906074939 | 25 | 130 | 11.3 | 19.3 | 0.00 | 0.00 | 0.00 | 55 | 1017.1 |
| 20260906074433 | 25 | 183 | 16.1 | 19.3 | 0.00 | 0.00 | 0.00 | 55 | 1017.5 |
| 20260906073932 | 25 | 200 | 9.7 | 14.5 | 0.00 | 0.00 | 0.00 | 55 | 1017.5 |
| 20260906073427 | 25 | 143 | 6.4 | 14.5 | 0.00 | 0.00 | 0.00 | 54 | 1017.7 |
| 20260906072923 | 25 | 131 | 8.0 | 11.3 | 0.00 | 0.00 | 0.00 | 54 | 1017.7 |
| 20260906072418 | 25 | 161 | 17.7 | 22.5 | 0.00 | 0.00 | 0.00 | 54 | 1017.6 |
| 20260906071914 | 25 | 155 | 14.5 | 16.1 | 0.00 | 0.00 | 0.00 | 54 | 1017.6 |
| 20260906071410 | 25 | 162 | 17.7 | 19.3 | 0.00 | 0.00 | 0.00 | 54 | 1017.6 |
| 20260906070906 | 25 | 152 | 14.5 | 22.5 | 0.00 | 0.00 | 0.00 | 54 | 1017.7 |
| 20260906070402 | 25 | 168 | 9.7 | 14.5 | 0.00 | 0.00 | 0.00 | 54 | 1018.0 |
| 20260906065856 | 25 | 173 | 9.7 | 14.5 | 0.00 | 0.00 | 0.00 | 54 | 1017.9 |
| 20260906065350 | 25 | 201 | 8.0 | 14.5 | 0.00 | 0.00 | 0.00 | 54 | 1018.1 |
| 20260906064846 | 25 | 163 | 16.1 | 19.3 | 0.00 | 0.00 | 0.00 | 53 | 1017.8 |
| 20260906064342 | 25 | 194 | 9.7 | 14.5 | 0.00 | 0.00 | 0.00 | 53 | 1017.7 |
| 20260906063836 | 25 | 169 | 11.3 | 16.1 | 0.00 | 0.00 | 0.00 | 53 | 1017.8 |
| 20260906063332 | 25 | 188 | 14.5 | 19.3 | 0.00 | 0.00 | 0.00 | 53 | 1017.6 |
| 20260906062827 | 25 | 181 | 19.3 | 22.5 | 0.00 | 0.00 | 0.00 | 53 | 1017.8 |
| 20260906062326 | 25 | 160 | 9.7 | 14.5 | 0.00 | 0.00 | 0.00 | 54 | 1017.7 |
| 20260906061821 | 25 | 154 | 16.1 | 19.3 | 0.00 | 0.00 | 0.00 | 54 | 1017.7 |
| 20260906061318 | 25 | 176 | 11.3 | 16.1 | 0.00 | 0.00 | 0.00 | 53 | 1017.7 |
| 20260906060813 | 25 | 155 | 11.3 | 16.1 | 0.00 | 0.00 | 0.00 | 53 | 1017.8 |
| 20260906060311 | 26 | 180 | 16.1 | 27.4 | 0.00 | 0.00 | 0.00 | 53 | 1017.8 |
| 20260906055807 | 26 | 190 | 14.5 | 19.3 | 0.00 | 0.00 | 0.00 | 53 | 1017.7 |
| 20260906055306 | 26 | 191 | 3.2 | 4.8 | 0.00 | 0.00 | 0.00 | 52 | 1017.6 |
| 20260906054756 | 26 | 159 | 14.5 | 16.1 | 0.00 | 0.00 | 0.00 | 52 | 1017.6 |
| 20260906054252 | 26 | 165 | 14.5 | 16.1 | 0.00 | 0.00 | 0.00 | 52 | 1017.6 |
| 20260906053748 | 26 | 145 | 16.1 | 24.1 | 0.00 | 0.00 | 0.00 | 51 | 1017.5 |
| 20260906053243 | 26 | 141 | 16.1 | 19.3 | 0.00 | 0.00 | 0.00 | 51 | 1017.7 |
| 20260906052738 | 26 | 191 | 12.9 | 16.1 | 0.00 | 0.00 | 0.00 | 51 | 1017.5 |
| 20260906052229 | 26 | 182 | 17.7 | 22.5 | 0.00 | 0.00 | 0.00 | 50 | 1017.1 |
| 20260906051726 | 26 | 175 | 19.3 | 22.5 | 0.00 | 0.00 | 0.00 | 49 | 1017.6 |
| 20260906051225 | 27 | 204 | 14.5 | 19.3 | 0.00 | 0.00 | 0.00 | 49 | 1017.5 |
| 20260906050720 | 27 | 145 | 22.5 | 27.4 | 0.00 | 0.00 | 0.00 | 48 | 1017.4 |
| 20260906050215 | 27 | 122 | 25.7 | 33.8 | 0.00 | 0.00 | 0.00 | 48 | 1017.4 |
| 20260906045708 | 27 | 139 | 22.5 | 35.4 | 0.00 | 0.00 | 0.00 | 47 | 1017.6 |
| 20260906045203 | 27 | 175 | 27.4 | 35.4 | 0.00 | 0.00 | 0.00 | 47 | 1017.6 |
| 20260906044700 | 27 | 152 | 17.7 | 22.5 | 0.00 | 0.00 | 0.00 | 47 | 1017.4 |
| 20260906044154 | 27 | 174 | 17.7 | 19.3 | 0.00 | 0.00 | 0.00 | 47 | 1017.8 |
| 20260906043650 | 27 | 138 | 32.2 | 38.6 | 0.00 | 0.00 | 0.00 | 46 | 1017.5 |
| 20260906043146 | 28 | 166 | 19.3 | 22.5 | 0.00 | 0.00 | 0.00 | 46 | 1017.6 |
| 20260906042645 | 28 | 127 | 19.3 | 24.1 | 0.00 | 0.00 | 0.00 | 46 | 1017.7 |
| 20260906042139 | 28 | 130 | 24.1 | 30.6 | 0.00 | 0.00 | 0.00 | 46 | 1017.8 |
| 20260906041635 | 28 | 147 | 32.2 | 41.8 | 0.00 | 0.00 | 0.00 | 46 | 1017.7 |
| 20260906041130 | 28 | 127 | 29.0 | 35.4 | 0.00 | 0.00 | 0.00 | 46 | 1017.8 |
| 20260906040626 | 28 | 148 | 22.5 | 30.6 | 0.00 | 0.00 | 0.00 | 47 | 1017.6 |
| 20260906040121 | 28 | 120 | 20.9 | 30.6 | 0.00 | 0.00 | 0.00 | 47 | 1017.7 |
| 20260906035616 | 28 | 131 | 16.1 | 22.5 | 0.00 | 0.00 | 0.00 | 47 | 1017.6 |
| 20260906035111 | 28 | 148 | 27.4 | 41.8 | 0.00 | 0.00 | 0.00 | 47 | 1017.5 |
| 20260906034606 | 28 | 146 | 19.3 | 22.5 | 0.00 | 0.00 | 0.00 | 47 | 1017.7 |
| 20260906034100 | 28 | 130 | 17.7 | 24.1 | 0.00 | 0.00 | 0.00 | 47 | 1017.7 |
| 20260906033556 | 28 | 151 | 20.9 | 24.1 | 0.00 | 0.00 | 0.00 | 47 | 1017.6 |
| 20260906033051 | 28 | 155 | 16.1 | 22.5 | 0.00 | 0.00 | 0.00 | 47 | 1017.7 |
| 20260906032547 | 28 | 156 | 17.7 | 22.5 | 0.00 | 0.00 | 0.00 | 47 | 1017.6 |
| 20260906032042 | 28 | 123 | 11.3 | 16.1 | 0.00 | 0.00 | 0.00 | 47 | 1017.4 |
| 20260906031537 | 28 | 71 | 12.9 | 22.5 | 0.00 | 0.00 | 0.00 | 47 | 1017.6 |
| 20260906031028 | 28 | 138 | 16.1 | 19.3 | 0.00 | 0.00 | 0.00 | 47 | 1017.4 |
| 20260906030527 | 28 | 141 | 19.3 | 24.1 | 0.00 | 0.00 | 0.00 | 47 | 1017.1 |
| 20260906030026 | 28 | 160 | 9.7 | 11.3 | 0.00 | 0.00 | 0.00 | 47 | 1017.1 |
| 20260906025526 | 29 | 80 | 9.7 | 14.5 | 0.00 | 0.00 | 0.00 | 46 | 1017.1 |
| 20260906025024 | 29 | 102 | 4.8 | 8.0 | 0.00 | 0.00 | 0.00 | 45 | 1016.8 |
| 20260906024519 | 29 | 139 | 19.3 | 30.6 | 0.00 | 0.00 | 0.00 | 45 | 1016.8 |
| 20260906024014 | 29 | 135 | 20.9 | 27.4 | 0.00 | 0.00 | 0.00 | 45 | 1017.0 |
| 20260906023510 | 29 | 121 | 19.3 | 22.5 | 0.00 | 0.00 | 0.00 | 44 | 1016.7 |
| 20260906023005 | 29 | 162 | 22.5 | 27.4 | 0.00 | 0.00 | 0.00 | 44 | 1016.6 |
| 20260906022500 | 29 | 142 | 22.5 | 27.4 | 0.00 | 0.00 | 0.00 | 44 | 1016.6 |
| 20260906021955 | 30 | 161 | 17.7 | 30.6 | 0.00 | 0.00 | 0.00 | 44 | 1016.5 |
| 20260906021450 | 30 | 121 | 8.0 | 14.5 | 0.00 | 0.00 | 0.00 | 43 | 1016.2 |
| 20260906020944 | 30 | 137 | 20.9 | 24.1 | 0.00 | 0.00 | 0.00 | 43 | 1016.1 |
| 20260906020438 | 30 | 142 | 27.4 | 33.8 | 0.00 | 0.00 | 0.00 | 42 | 1015.9 |
| 20260906015932 | 30 | 150 | 16.1 | 19.3 | 0.00 | 0.00 | 0.00 | 42 | 1016.1 |
| 20260906015427 | 30 | 132 | 16.1 | 19.3 | 0.00 | 0.00 | 0.00 | 42 | 1015.9 |
| 20260906014927 | 30 | 145 | 17.7 | 22.5 | 0.00 | 0.00 | 0.00 | 41 | 1015.8 |
| 20260906014426 | 30 | 158 | 16.1 | 22.5 | 0.00 | 0.00 | 0.00 | 41 | 1015.9 |
| 20260906013923 | 30 | 153 | 16.1 | 19.3 | 0.00 | 0.00 | 0.00 | 41 | 1015.8 |
| 20260906013418 | 30 | 130 | 19.3 | 30.6 | 0.00 | 0.00 | 0.00 | 40 | 1015.5 |
| 20260906012914 | 30 | 133 | 14.5 | 19.3 | 0.00 | 0.00 | 0.00 | 41 | 1015.6 |
| 20260906012408 | 30 | 175 | 17.7 | 24.1 | 0.00 | 0.00 | 0.00 | 40 | 1015.7 |
| 20260906011907 | 31 | 106 | 19.3 | 27.4 | 0.00 | 0.00 | 0.00 | 40 | 1015.4 |
| 20260906011403 | 31 | 150 | 14.5 | 22.5 | 0.00 | 0.00 | 0.00 | 40 | 1015.5 |
| 20260906010858 | 31 | 136 | 11.3 | 16.1 | 0.00 | 0.00 | 0.00 | 40 | 1015.7 |
| 20260906010354 | 31 | 129 | 14.5 | 19.3 | 0.00 | 0.00 | 0.00 | 40 | 1015.6 |
| 20260906005850 | 31 | 146 | 19.3 | 22.5 | 0.00 | 0.00 | 0.00 | 39 | 1015.5 |
| 20260906005349 | 31 | 156 | 9.7 | 11.3 | 0.00 | 0.00 | 0.00 | 39 | 1015.7 |
| 20260906004847 | 31 | 142 | 29.0 | 33.8 | 0.00 | 0.00 | 0.00 | 39 | 1015.6 |
| 20260906004348 | 31 | 128 | 11.3 | 14.5 | 0.00 | 0.00 | 0.00 | 39 | 1015.6 |
| 20260906003843 | 32 | 95 | 17.7 | 22.5 | 0.00 | 0.00 | 0.00 | 39 | 1015.7 |
| 20260906003338 | 32 | 145 | 12.9 | 16.1 | 0.00 | 0.00 | 0.00 | 38 | 1015.6 |
| 20260906002834 | 32 | 159 | 20.9 | 33.8 | 0.00 | 0.00 | 0.00 | 38 | 1015.9 |
| 20260906002333 | 32 | 145 | 16.1 | 33.8 | 0.00 | 0.00 | 0.00 | 38 | 1015.7 |
| 20260906001829 | 32 | 112 | 20.9 | 27.4 | 0.00 | 0.00 | 0.00 | 38 | 1015.8 |
| 20260906001324 | 32 | 154 | 24.1 | 35.4 | 0.00 | 0.00 | 0.00 | 38 | 1015.4 |
| 20260906000819 | 32 | 130 | 20.9 | 30.6 | 0.00 | 0.00 | 0.00 | 38 | 1015.6 |
| 20260906000314 | 32 | 129 | 12.9 | 16.1 | 0.00 | 0.00 | 0.00 | 38 | 1015.4 |
| 20260905235809 | 32 | 157 | 14.5 | 16.1 | 0.00 | 0.00 | 0.00 | 38 | 1015.0 |
| 20260905235308 | 32 | 113 | 27.4 | 35.4 | 0.00 | 0.00 | 0.00 | 37 | 1014.8 |
| 20260905234804 | 33 | 134 | 6.4 | 11.3 | 0.00 | 0.00 | 0.00 | 37 | 1014.9 |
| 20260905234259 | 33 | 129 | 19.3 | 24.1 | 0.00 | 0.00 | 0.00 | 37 | 1014.8 |
| 20260905233754 | 33 | 152 | 16.1 | 22.5 | 0.00 | 0.00 | 0.00 | 37 | 1014.7 |
| 20260905233254 | 33 | 190 | 22.5 | 30.6 | 0.00 | 0.00 | 0.00 | 36 | 1014.7 |
| 20260905232753 | 33 | 118 | 25.7 | 33.8 | 0.00 | 0.00 | 0.00 | 36 | 1014.9 |
| 20260905232249 | 33 | 158 | 25.7 | 30.6 | 0.00 | 0.00 | 0.00 | 36 | 1014.6 |
| 20260905231745 | 33 | 164 | 24.1 | 33.8 | 0.00 | 0.00 | 0.00 | 35 | 1014.5 |
| 20260905231239 | 34 | 128 | 17.7 | 19.3 | 0.00 | 0.00 | 0.00 | 36 | 1014.5 |
| 20260905230736 | 34 | 187 | 22.5 | 24.1 | 0.00 | 0.00 | 0.00 | 35 | 1014.6 |
| 20260905230233 | 34 | 119 | 19.3 | 22.5 | 0.00 | 0.00 | 0.00 | 35 | 1014.5 |
| 20260905225733 | 34 | 151 | 19.3 | 24.1 | 0.00 | 0.00 | 0.00 | 35 | 1014.3 |
| 20260905225229 | 35 | 131 | 24.1 | 33.8 | 0.00 | 0.00 | 0.00 | 34 | 1014.6 |
| 20260905224727 | 35 | 95 | 9.7 | 16.1 | 0.00 | 0.00 | 0.00 | 34 | 1014.5 |
| 20260905224223 | 35 | 188 | 19.3 | 27.4 | 0.00 | 0.00 | 0.00 | 35 | 1014.7 |
| 20260905223719 | 35 | 111 | 27.4 | 35.4 | 0.00 | 0.00 | 0.00 | 34 | 1014.5 |
| 20260905223216 | 35 | 170 | 20.9 | 33.8 | 0.00 | 0.00 | 0.00 | 34 | 1014.6 |
| 20260905222711 | 35 | 146 | 11.3 | 16.1 | 0.00 | 0.00 | 0.00 | 34 | 1014.5 |
| 20260905222210 | 35 | 152 | 17.7 | 24.1 | 0.00 | 0.00 | 0.00 | 35 | 1014.6 |
| 20260905221706 | 35 | 129 | 17.7 | 27.4 | 0.00 | 0.00 | 0.00 | 35 | 1014.6 |
| 20260905221203 | 35 | 151 | 19.3 | 27.4 | 0.00 | 0.00 | 0.00 | 35 | 1014.6 |
| 20260905220658 | 35 | 127 | 27.4 | 38.6 | 0.00 | 0.00 | 0.00 | 36 | 1014.4 |
| 20260905220155 | 35 | 172 | 22.5 | 27.4 | 0.00 | 0.00 | 0.00 | 35 | 1014.5 |
| 20260905215654 | 35 | 161 | 14.5 | 19.3 | 0.00 | 0.00 | 0.00 | 35 | 1014.5 |
| 20260905215150 | 35 | 188 | 24.1 | 33.8 | 0.00 | 0.00 | 0.00 | 34 | 1014.7 |
| 20260905214646 | 35 | 173 | 16.1 | 22.5 | 0.00 | 0.00 | 0.00 | 35 | 1014.9 |
| 20260905214141 | 35 | 203 | 19.3 | 33.8 | 0.00 | 0.00 | 0.00 | 36 | 1014.8 |
| 20260905213636 | 35 | 245 | 16.1 | 22.5 | 0.00 | 0.00 | 0.00 | 36 | 1015.0 |
| 20260905213132 | 35 | 223 | 14.5 | 22.5 | 0.00 | 0.00 | 0.00 | 35 | 1014.9 |